Aviation Digital Data Service (ADDS)

Output produced by METARs form (0821 UTC 18 February 2019)
found at http://www.aviationweather.gov/metar/data/
 
Forecast for: OIFM (ESFAHAN S B INTL, IR)
Text: TAF OIFM 180550Z 1806/1912 32008KT 8000 NSC
Forecast period: 0600 UTC 18 February 2019 to 1200 UTC 19 February 2019
Forecast type: FROM: standard forecast or significant change
Winds: from the NW (320 degrees) at 9 MPH (8 knots; 4.1 m/s)
Visibility: 5 miles (8 km)
Ceiling: unknown
Clouds: missing
Weather: no significant weather forecast for this period
Text: TEMPO 1812/1818 24016KT 7000 FEW030CB SCT040 SCT100
Forecast period: 1200 to 1800 UTC 18 February 2019
Forecast type: TEMPORARY: The following changes expected for less than half the time period
Winds: from the WSW (240 degrees) at 18 MPH (16 knots; 8.2 m/s)
Visibility: 4 miles (7 km)
Ceiling: at least 12,000 feet AGL
Clouds: few clouds at 3000 feet AGL
scattered clouds at 4000 feet AGL
scattered clouds at 10000 feet AGL
Weather: no significant weather forecast for this period